Disclaimer

Please do not use the information listed here in-flight or in-navigation, as they are not provided to us by the airports but are provided by volunteers, so they might be outdated.

Search


Regions


Airport information page

Radio informations:
Tower (TWR) - 122.5 MHz
Approach (APP) - 122.5 MHz

Airport informations:
Latitude: 22° 58' 47.60" S
Longitude: 014° 38' 43.19" E
Elevation: 299 feet - 91 meters
Operating hours: Remarks
Operating agency: Civil government, landing fees and diplomatic clearance may be required
Timezone: UTC+1(+2DT)
Fuel: Jet A1, without icing nhibitor.

100/130 MIL Spec, low lead, aviation gasoline (BLUE)

Runway information:
09/27 - 7001 x 98 feet< - >2134 x 30 meters

Recent METARs:
FYWB 131800Z AUTO 28009KT //// // ////// 22/10 Q1011
FYWB 131900Z AUTO 32005KT //// // ////// 18/11 Q1012
FYWB 131900Z AUTO 32005KT //// // ////// 18/11 Q1012

Airport on the map: